createdAt,value
2018-12-30T00:01:04.113Z,19.90
2018-12-30T00:03:34.495Z,19.47
2018-12-30T00:06:05.271Z,17.87
2018-12-30T00:08:35.891Z,19.10
2018-12-30T00:11:06.227Z,18.90
2018-12-30T00:13:36.719Z,18.97
2018-12-30T00:16:07.531Z,17.30
2018-12-30T00:18:37.931Z,18.07
2018-12-30T00:21:09.335Z,17.80
2018-12-30T00:23:39.836Z,18.23
2018-12-30T00:26:10.248Z,17.57
2018-12-30T00:28:43.503Z,18.57
2018-12-30T00:31:17.463Z,16.70
2018-12-30T00:33:51.557Z,17.90
2018-12-30T00:36:25.099Z,16.40
2018-12-30T00:38:55.799Z,16.87
2018-12-30T00:41:26.203Z,17.70
2018-12-30T00:43:56.663Z,17.60
2018-12-30T00:46:27.083Z,18.17
2018-12-30T00:48:58.627Z,18.17
2018-12-30T00:51:30.075Z,17.13
2018-12-30T00:54:00.802Z,17.23
2018-12-30T00:56:31.249Z,16.23
2018-12-30T00:59:01.667Z,16.90
2018-12-30T01:01:32.119Z,15.30
2018-12-30T01:04:02.540Z,15.20
2018-12-30T01:06:33.400Z,16.33
2018-12-30T01:09:04.419Z,16.10
2018-12-30T01:11:34.840Z,15.90
2018-12-30T01:14:05.271Z,14.73
2018-12-30T01:16:35.956Z,13.83
2018-12-30T01:19:06.984Z,14.50
2018-12-30T01:21:37.415Z,15.70
2018-12-30T01:24:07.860Z,13.83
2018-12-30T01:26:38.268Z,13.27
2018-12-30T01:29:08.756Z,13.90
2018-12-30T01:31:39.544Z,13.83
2018-12-30T01:34:09.988Z,13.80
2018-12-30T01:36:40.392Z,13.40
2018-12-30T01:39:10.844Z,12.43
2018-12-30T01:41:41.252Z,12.17
2018-12-30T01:44:11.695Z,13.00
2018-12-30T01:46:42.103Z,11.90
2018-12-30T01:49:12.512Z,10.80
2018-12-30T01:51:42.955Z,12.20
2018-12-30T01:54:13.663Z,12.30
2018-12-30T01:56:44.107Z,12.00
2018-12-30T01:59:14.594Z,11.67
2018-12-30T02:01:45.019Z,10.10
2018-12-30T02:04:15.435Z,12.20
2018-12-30T02:06:46.175Z,11.30
2018-12-30T02:09:16.600Z,11.33
2018-12-30T02:11:47.030Z,10.10
2018-12-30T02:14:17.450Z,11.43
2018-12-30T02:16:47.891Z,11.57
2018-12-30T02:19:18.301Z,12.00
2018-12-30T02:21:48.747Z,10.23
2018-12-30T02:24:19.156Z,8.77
2018-12-30T02:26:49.595Z,10.00
2018-12-30T02:29:20.211Z,9.70
2018-12-30T02:31:50.661Z,9.63
2018-12-30T02:34:21.059Z,8.37
2018-12-30T02:36:51.573Z,8.57
2018-12-30T02:39:21.976Z,9.10
2018-12-30T02:41:52.387Z,8.30
2018-12-30T02:44:22.796Z,8.30
2018-12-30T02:46:53.143Z,8.37
2018-12-30T02:49:23.591Z,9.10
2018-12-30T02:51:54.092Z,9.33
2018-12-30T02:54:24.532Z,8.90
2018-12-30T02:56:54.995Z,8.87
2018-12-30T02:59:25.561Z,9.20
2018-12-30T03:01:56.032Z,9.40
2018-12-30T03:04:26.487Z,8.57
2018-12-30T03:06:56.905Z,8.70
2018-12-30T03:09:27.319Z,8.50
2018-12-30T03:11:57.083Z,8.53
2018-12-30T03:14:27.324Z,8.13
2018-12-30T03:16:57.767Z,8.50
2018-12-30T03:19:28.099Z,8.03
2018-12-30T03:21:59.691Z,8.80
2018-12-30T03:24:30.531Z,8.17
2018-12-30T03:27:00.868Z,8.70
2018-12-30T03:29:31.247Z,9.13
2018-12-30T03:32:01.587Z,8.57
2018-12-30T03:34:32.657Z,8.17
2018-12-30T03:37:02.987Z,8.73
2018-12-30T03:39:33.324Z,8.40
2018-12-30T03:42:03.859Z,8.30
2018-12-30T03:44:34.187Z,8.97
2018-12-30T03:47:04.556Z,9.10
2018-12-30T03:49:34.891Z,8.20
2018-12-30T03:52:08.526Z,7.03
2018-12-30T03:54:37.331Z,8.30
2018-12-30T03:57:07.675Z,7.67
2018-12-30T03:59:38.071Z,8.13
2018-12-30T04:02:08.792Z,8.47
2018-12-30T04:04:39.443Z,7.47
2018-12-30T04:07:09.779Z,7.13
2018-12-30T04:09:40.111Z,7.90
2018-12-30T04:12:10.452Z,6.97
2018-12-30T04:14:40.791Z,7.37
2018-12-30T04:17:11.113Z,6.70
2018-12-30T04:19:41.447Z,7.13
2018-12-30T04:22:16.750Z,7.53
2018-12-30T04:24:44.136Z,7.97
2018-12-30T04:27:14.471Z,7.47
2018-12-30T04:29:44.835Z,7.27
2018-12-30T04:32:15.223Z,7.07
2018-12-30T04:34:45.579Z,7.03
2018-12-30T04:37:15.920Z,7.80
2018-12-30T04:39:46.444Z,7.13
2018-12-30T04:42:16.877Z,7.03
2018-12-30T04:44:47.212Z,7.83
2018-12-30T04:47:17.571Z,7.53
2018-12-30T04:49:47.913Z,7.63
2018-12-30T04:52:25.382Z,7.17
2018-12-30T04:54:50.281Z,7.90
2018-12-30T04:57:20.979Z,8.60
2018-12-30T04:59:51.377Z,8.23
2018-12-30T05:02:21.771Z,8.57
2018-12-30T05:04:52.095Z,8.13
2018-12-30T05:07:22.434Z,8.67
2018-12-30T05:09:53.159Z,9.13
2018-12-30T05:12:23.531Z,9.97
2018-12-30T05:14:54.192Z,9.70
2018-12-30T05:17:24.523Z,9.17
2018-12-30T05:19:55.347Z,9.70
2018-12-30T05:22:33.630Z,10.30
2018-12-30T05:24:57.720Z,10.63
2018-12-30T05:27:28.127Z,10.67
2018-12-30T05:29:58.595Z,11.50
2018-12-30T05:32:29.032Z,10.90
2018-12-30T05:34:59.375Z,11.77
2018-12-30T05:37:29.708Z,11.70
2018-12-30T05:40:00.273Z,11.80
2018-12-30T05:42:30.683Z,11.63
2018-12-30T05:45:00.370Z,11.87
2018-12-30T05:47:30.615Z,12.27
2018-12-30T05:50:01.063Z,12.30
2018-12-30T05:52:31.407Z,12.77
2018-12-30T05:55:01.091Z,12.70
2018-12-30T05:57:31.408Z,11.93
2018-12-30T06:00:01.128Z,12.67
2018-12-30T06:02:31.411Z,12.77
2018-12-30T06:05:01.163Z,12.73
2018-12-30T06:07:32.780Z,12.63
2018-12-30T06:10:03.221Z,12.30
2018-12-30T06:12:33.975Z,12.90
2018-12-30T06:15:04.512Z,11.63
2018-12-30T06:17:34.854Z,13.10
2018-12-30T06:20:05.319Z,12.77
2018-12-30T06:22:36.128Z,13.03
2018-12-30T06:25:06.510Z,12.77
2018-12-30T06:27:37.528Z,13.13
2018-12-30T06:30:07.939Z,12.97
2018-12-30T06:32:38.716Z,13.00
2018-12-30T06:35:09.059Z,13.17
2018-12-30T06:37:39.432Z,13.23
2018-12-30T06:40:11.453Z,12.80
2018-12-30T06:42:41.956Z,13.27
2018-12-30T06:45:12.295Z,13.63
2018-12-30T06:47:42.667Z,13.13
2018-12-30T06:50:13.021Z,12.90
2018-12-30T06:52:43.468Z,13.10
2018-12-30T06:55:13.800Z,12.93
2018-12-30T06:57:44.619Z,12.17
2018-12-30T07:00:14.957Z,11.77
2018-12-30T07:02:45.295Z,12.10
2018-12-30T07:05:15.671Z,12.50
2018-12-30T07:07:46.007Z,12.23
2018-12-30T07:10:16.380Z,11.80
2018-12-30T07:12:46.714Z,12.00
2018-12-30T07:15:17.128Z,12.33
2018-12-30T07:17:47.451Z,11.87
2018-12-30T07:20:17.823Z,11.90
2018-12-30T07:22:48.157Z,11.63
2018-12-30T07:25:18.532Z,11.03
2018-12-30T07:27:48.936Z,11.00
2018-12-30T07:30:19.303Z,11.23
2018-12-30T07:32:49.704Z,11.70
2018-12-30T07:35:20.151Z,10.30
2018-12-30T07:37:50.584Z,10.43
2018-12-30T07:40:20.324Z,10.67
2018-12-30T07:42:50.665Z,10.47
2018-12-30T07:45:21.376Z,10.33
2018-12-30T07:47:51.124Z,12.37
2018-12-30T07:50:21.586Z,11.83
2018-12-30T07:52:51.928Z,10.87
2018-12-30T07:55:22.295Z,12.37
2018-12-30T07:57:52.627Z,10.47
2018-12-30T08:00:22.323Z,11.40
2018-12-30T08:02:52.571Z,10.07
2018-12-30T08:05:22.918Z,10.17
2018-12-30T08:07:53.391Z,10.37
2018-12-30T08:10:26.197Z,12.07
2018-12-30T08:12:56.927Z,10.60
2018-12-30T08:15:27.259Z,10.93
2018-12-30T08:17:57.707Z,9.83
2018-12-30T08:20:28.047Z,10.13
2018-12-30T08:22:58.381Z,9.10
2018-12-30T08:25:28.820Z,9.37
2018-12-30T08:27:59.191Z,9.60
2018-12-30T08:30:28.947Z,9.20
2018-12-30T08:32:59.244Z,8.87
2018-12-30T08:35:29.883Z,7.87
2018-12-30T08:38:00.251Z,8.37
2018-12-30T08:40:30.671Z,7.73
2018-12-30T08:43:02.079Z,9.73
2018-12-30T08:45:32.759Z,8.53
2018-12-30T08:48:03.099Z,8.37
2018-12-30T08:50:33.476Z,9.60
2018-12-30T08:53:03.964Z,10.70
2018-12-30T08:55:34.399Z,17.17
2018-12-30T08:58:04.759Z,9.07
2018-12-30T09:00:35.124Z,8.90
2018-12-30T09:03:05.463Z,10.97
2018-12-30T09:05:35.831Z,9.97
2018-12-30T09:08:06.239Z,10.63
2018-12-30T09:10:36.656Z,10.27
2018-12-30T09:13:06.350Z,9.73
2018-12-30T09:15:36.595Z,10.57
2018-12-30T09:18:06.295Z,10.40
2018-12-30T09:20:36.532Z,9.37
2018-12-30T09:23:06.871Z,8.30
2018-12-30T09:25:37.564Z,8.70
2018-12-30T09:28:07.927Z,9.23
2018-12-30T09:30:38.266Z,8.37
2018-12-30T09:33:08.696Z,7.80
2018-12-30T09:35:39.371Z,8.77
2018-12-30T09:38:09.743Z,8.50
2018-12-30T09:40:40.084Z,7.80
2018-12-30T09:43:10.859Z,8.23
2018-12-30T09:45:41.199Z,8.63
2018-12-30T09:48:11.523Z,8.40
2018-12-30T09:50:41.891Z,8.20
2018-12-30T09:53:12.215Z,7.83
2018-12-30T09:55:42.547Z,7.87
2018-12-30T09:58:13.184Z,7.40
2018-12-30T10:00:43.580Z,7.53
2018-12-30T10:03:13.586Z,7.00
2018-12-30T10:05:43.836Z,6.30
2018-12-30T10:08:14.231Z,7.17
2018-12-30T10:10:44.571Z,6.93
2018-12-30T10:13:14.639Z,7.03
2018-12-30T10:15:44.888Z,7.23
2018-12-30T10:18:15.250Z,6.57
2018-12-30T10:20:45.583Z,7.43
2018-12-30T10:23:15.927Z,7.30
2018-12-30T10:25:46.362Z,8.07
2018-12-30T10:28:16.759Z,7.63
2018-12-30T10:30:47.616Z,8.60
2018-12-30T10:33:18.291Z,6.53
2018-12-30T10:35:48.628Z,7.07
2018-12-30T10:38:18.995Z,8.67
2018-12-30T10:40:49.336Z,6.63
2018-12-30T10:43:19.031Z,6.30
2018-12-30T10:45:49.283Z,5.30
2018-12-30T10:48:19.715Z,5.70
2018-12-30T10:50:50.035Z,4.60
2018-12-30T10:53:20.472Z,5.07
2018-12-30T10:55:50.796Z,2.27
2018-12-30T10:58:21.203Z,2.10
2018-12-30T11:00:51.587Z,1.73
2018-12-30T11:03:21.995Z,1.87
2018-12-30T11:05:52.459Z,2.13
2018-12-30T11:08:22.815Z,1.73
2018-12-30T11:10:53.265Z,2.00
2018-12-30T11:13:23.591Z,1.90
2018-12-30T11:15:53.945Z,2.00
2018-12-30T11:18:24.271Z,1.87
2018-12-30T11:20:54.677Z,1.97
2018-12-30T11:23:25.007Z,1.60
2018-12-30T11:25:55.364Z,1.73
2018-12-30T11:28:25.691Z,1.50
2018-12-30T11:30:56.105Z,1.60
2018-12-30T11:33:26.466Z,1.63
2018-12-30T11:35:56.868Z,1.40
2018-12-30T11:38:27.199Z,1.40
2018-12-30T11:40:57.527Z,1.43
2018-12-30T11:43:27.860Z,1.63
2018-12-30T11:45:58.592Z,1.60
2018-12-30T11:48:29.280Z,1.10
2018-12-30T11:50:59.611Z,1.00
2018-12-30T11:53:29.973Z,1.03
2018-12-30T11:56:00.310Z,0.80
2018-12-30T11:58:32.420Z,0.67
2018-12-30T12:01:02.759Z,0.80
2018-12-30T12:03:33.136Z,0.60
2018-12-30T12:06:03.471Z,0.97
2018-12-30T12:08:34.203Z,0.83
2018-12-30T12:11:04.894Z,1.03
2018-12-30T12:13:37.107Z,1.10
2018-12-30T12:16:07.599Z,0.60
2018-12-30T12:18:37.927Z,0.80
2018-12-30T12:21:08.301Z,0.93
2018-12-30T12:23:38.719Z,1.00
2018-12-30T12:26:09.080Z,0.90
2018-12-30T12:28:39.915Z,1.03
2018-12-30T12:31:10.306Z,1.40
2018-12-30T12:33:40.731Z,1.47
2018-12-30T12:36:11.135Z,1.23
2018-12-30T12:38:41.508Z,1.60
2018-12-30T12:41:13.084Z,1.70
2018-12-30T12:43:43.448Z,1.80
2018-12-30T12:46:13.763Z,1.67
2018-12-30T12:48:44.094Z,1.50
2018-12-30T12:51:14.456Z,1.67
2018-12-30T12:53:44.815Z,1.93
2018-12-30T12:56:14.831Z,1.80
2018-12-30T12:58:45.139Z,2.07
2018-12-30T13:01:15.963Z,1.70
2018-12-30T13:03:46.292Z,1.80
2018-12-30T13:06:16.713Z,1.50
2018-12-30T13:08:47.111Z,1.70
2018-12-30T13:11:17.626Z,2.00
2018-12-30T13:13:47.956Z,2.00
2018-12-30T13:16:17.681Z,1.90
2018-12-30T13:18:47.979Z,1.60
2018-12-30T13:21:18.307Z,1.80
2018-12-30T13:23:48.678Z,1.60
2018-12-30T13:26:19.075Z,2.70
2018-12-30T13:28:49.582Z,1.87
2018-12-30T13:31:20.072Z,2.40
2018-12-30T13:33:50.785Z,2.10
2018-12-30T13:36:21.444Z,2.50
2018-12-30T13:38:51.771Z,1.93
2018-12-30T13:41:22.103Z,2.00
2018-12-30T13:43:52.424Z,1.90
2018-12-30T13:46:42.115Z,2.30
2018-12-30T13:49:12.682Z,1.70
2018-12-30T13:51:43.079Z,1.73
2018-12-30T13:54:12.880Z,1.63
2018-12-30T13:56:43.200Z,2.23
2018-12-30T13:59:13.344Z,2.53
2018-12-30T14:01:43.583Z,3.10
2018-12-30T14:04:13.259Z,2.50
2018-12-30T14:06:43.623Z,2.40
2018-12-30T14:09:14.012Z,2.23
2018-12-30T14:11:44.459Z,1.60
2018-12-30T14:14:14.814Z,2.30
2018-12-30T14:16:47.272Z,2.40
2018-12-30T14:19:17.712Z,2.47
2018-12-30T14:21:48.115Z,1.63
2018-12-30T14:24:18.471Z,2.57
2018-12-30T14:26:48.804Z,2.60
2018-12-30T14:29:18.515Z,2.60
2018-12-30T14:31:48.759Z,2.30
2018-12-30T14:34:19.486Z,2.33
2018-12-30T14:36:49.919Z,2.30
2018-12-30T14:39:20.240Z,2.40
2018-12-30T14:41:50.599Z,2.53
2018-12-30T14:44:20.926Z,2.43
2018-12-30T14:46:51.285Z,2.10
2018-12-30T14:49:21.607Z,2.70
2018-12-30T14:51:51.971Z,2.13
2018-12-30T14:54:22.384Z,2.10
2018-12-30T14:56:52.752Z,2.00
2018-12-30T14:59:23.080Z,2.10
2018-12-30T15:01:53.435Z,2.17
2018-12-30T15:04:23.775Z,1.97
2018-12-30T15:06:54.149Z,2.67
2018-12-30T15:09:24.536Z,2.30
2018-12-30T15:11:54.923Z,2.90
2018-12-30T15:14:25.277Z,2.30
2018-12-30T15:16:54.971Z,2.60
2018-12-30T15:19:25.315Z,2.40
2018-12-30T15:21:55.639Z,3.07
2018-12-30T15:24:25.995Z,2.73
2018-12-30T15:26:56.324Z,3.20
2018-12-30T15:29:26.687Z,2.87
2018-12-30T15:31:57.019Z,2.70
2018-12-30T15:34:27.392Z,2.70
2018-12-30T15:36:57.715Z,2.37
2018-12-30T15:39:28.794Z,2.80
2018-12-30T15:41:59.357Z,2.73
2018-12-30T15:44:29.123Z,2.93
2018-12-30T15:46:59.351Z,2.40
2018-12-30T15:49:29.450Z,2.40
2018-12-30T15:51:59.758Z,2.00
2018-12-30T15:54:29.451Z,2.63
2018-12-30T15:57:00.193Z,1.90
2018-12-30T15:59:30.563Z,2.70
2018-12-30T16:02:00.938Z,2.27
2018-12-30T16:04:31.267Z,2.70
2018-12-30T16:07:01.627Z,1.90
2018-12-30T16:09:31.962Z,2.37
2018-12-30T16:12:02.476Z,2.20
2018-12-30T16:14:32.828Z,2.00
2018-12-30T16:17:03.196Z,1.80
2018-12-30T16:19:32.883Z,2.40
2018-12-30T16:22:03.137Z,2.33
2018-12-30T16:24:32.930Z,1.80
2018-12-30T16:27:04.561Z,1.67
2018-12-30T16:29:35.042Z,2.03
2018-12-30T16:32:06.875Z,2.00
2018-12-30T16:34:37.519Z,2.20
2018-12-30T16:37:08.230Z,1.87
2018-12-30T16:39:38.560Z,1.93
2018-12-30T16:42:08.925Z,1.87
2018-12-30T16:44:39.616Z,2.17
2018-12-30T16:47:09.983Z,1.97
2018-12-30T16:49:40.396Z,1.90
2018-12-30T16:52:10.740Z,1.80
2018-12-30T16:54:41.240Z,1.80
2018-12-30T16:57:11.695Z,2.00
2018-12-30T16:59:42.031Z,2.20
2018-12-30T17:02:12.463Z,1.60
2018-12-30T17:04:42.907Z,1.70
2018-12-30T17:07:13.299Z,1.80
2018-12-30T17:09:45.652Z,2.10
2018-12-30T17:12:16.023Z,2.07
2018-12-30T17:14:46.351Z,2.00
2018-12-30T17:17:17.324Z,1.73
2018-12-30T17:19:47.921Z,1.70
2018-12-30T17:22:18.365Z,1.90
2018-12-30T17:24:50.549Z,2.03
2018-12-30T17:27:22.464Z,1.60
2018-12-30T17:29:53.123Z,1.70
2018-12-30T17:32:23.443Z,1.77
2018-12-30T17:34:53.808Z,1.83
2018-12-30T17:37:24.132Z,2.10
2018-12-30T17:39:54.495Z,1.70
2018-12-30T17:42:24.819Z,1.80
2018-12-30T17:44:55.179Z,1.43
2018-12-30T17:47:25.504Z,1.80
2018-12-30T17:49:56.142Z,1.80
2018-12-30T17:52:26.464Z,2.10
2018-12-30T17:54:56.804Z,2.07
2018-12-30T17:57:27.132Z,2.00
2018-12-30T17:59:57.799Z,2.07
2018-12-30T18:02:28.139Z,2.33
2018-12-30T18:04:58.539Z,2.00
2018-12-30T18:07:28.912Z,2.27
2018-12-30T18:09:59.246Z,2.60
2018-12-30T18:12:28.935Z,2.53
2018-12-30T18:14:58.521Z,2.23
2018-12-30T18:17:28.828Z,2.03
2018-12-30T18:19:59.516Z,2.10
2018-12-30T18:22:30.189Z,2.30
2018-12-30T18:25:00.634Z,2.13
2018-12-30T18:27:31.032Z,2.33
2018-12-30T18:30:01.455Z,2.17
2018-12-30T18:32:31.780Z,2.37
2018-12-30T18:35:02.180Z,2.40
2018-12-30T18:37:31.859Z,2.83
2018-12-30T18:40:02.193Z,2.13
2018-12-30T18:42:33.131Z,1.90
2018-12-30T18:45:03.511Z,2.13
2018-12-30T18:47:33.943Z,2.10
2018-12-30T18:50:05.833Z,1.70
2018-12-30T18:52:36.272Z,1.60
2018-12-30T18:55:07.167Z,1.50
2018-12-30T18:57:37.591Z,1.53
2018-12-30T19:00:09.814Z,1.43
2018-12-30T19:02:40.248Z,1.80
2018-12-30T19:05:10.577Z,1.60
2018-12-30T19:07:41.019Z,1.70
2018-12-30T19:10:11.343Z,1.83
2018-12-30T19:12:41.976Z,1.73
2018-12-30T19:15:12.299Z,1.60
2018-12-30T19:17:43.711Z,2.00
2018-12-30T19:20:14.061Z,2.43
2018-12-30T19:22:44.391Z,2.10
2018-12-30T19:25:15.084Z,2.50
2018-12-30T19:27:45.451Z,2.20
2018-12-30T19:30:15.780Z,2.00
2018-12-30T19:32:46.144Z,2.27
2018-12-30T19:35:16.973Z,3.43
2018-12-30T19:37:47.503Z,2.47
2018-12-30T19:40:17.835Z,3.30
2018-12-30T19:42:48.163Z,1.90
2018-12-30T19:45:18.240Z,2.87
2018-12-30T19:47:48.476Z,2.50
2018-12-30T19:50:18.852Z,3.20
2018-12-30T19:52:49.484Z,1.80
2018-12-30T19:55:20.120Z,1.33
2018-12-30T19:57:49.843Z,1.87
2018-12-30T20:00:20.092Z,1.40
2018-12-30T20:02:50.511Z,1.53
2018-12-30T20:05:20.847Z,1.50
2018-12-30T20:07:51.215Z,1.20
2018-12-30T20:10:21.624Z,1.40
2018-12-30T20:12:52.082Z,1.30
2018-12-30T20:15:22.417Z,1.13
2018-12-30T20:17:52.756Z,1.40
2018-12-30T20:20:23.180Z,1.73
2018-12-30T20:22:53.638Z,1.20
2018-12-30T20:25:23.440Z,1.40
2018-12-30T20:27:53.679Z,1.40
2018-12-30T20:30:23.436Z,1.87
2018-12-30T20:32:53.768Z,1.90
2018-12-30T20:35:23.468Z,1.03
2018-12-30T20:37:53.855Z,1.80
2018-12-30T20:40:23.660Z,1.67
2018-12-30T20:42:55.035Z,1.53
2018-12-30T20:45:25.467Z,0.90
2018-12-30T20:47:55.795Z,1.70
2018-12-30T20:50:26.155Z,1.43
2018-12-30T20:52:57.563Z,1.70
2018-12-30T20:55:28.262Z,1.70
2018-12-30T20:57:57.947Z,2.37
2018-12-30T21:00:28.319Z,1.63
2018-12-30T21:02:59.351Z,1.57
2018-12-30T21:05:29.692Z,1.60
2018-12-30T21:08:00.192Z,1.70
2018-12-30T21:10:30.543Z,1.20
2018-12-30T21:13:00.911Z,1.10
2018-12-30T21:15:31.256Z,1.27
2018-12-30T21:18:01.724Z,1.27
2018-12-30T21:20:32.103Z,1.43
2018-12-30T21:23:02.503Z,1.40
2018-12-30T21:25:32.835Z,1.20
2018-12-30T21:28:03.808Z,1.70
2018-12-30T21:30:34.231Z,1.37
2018-12-30T21:33:09.338Z,1.17
2018-12-30T21:35:39.963Z,1.10
2018-12-30T21:38:10.368Z,1.67
2018-12-30T21:40:40.961Z,1.23
2018-12-30T21:43:11.670Z,1.27
2018-12-30T21:45:42.293Z,1.50
2018-12-30T21:48:12.802Z,1.50
2018-12-30T21:50:43.310Z,1.80
2018-12-30T21:53:13.711Z,1.60
2018-12-30T21:55:44.076Z,1.93
2018-12-30T21:58:14.759Z,2.00
2018-12-30T22:00:45.107Z,1.60
2018-12-30T22:03:15.450Z,1.40
2018-12-30T22:05:45.187Z,1.73
2018-12-30T22:08:15.539Z,1.83
2018-12-30T22:10:45.881Z,1.67
2018-12-30T22:13:16.243Z,1.30
2018-12-30T22:15:46.659Z,1.87
2018-12-30T22:18:17.095Z,1.83
2018-12-30T22:20:47.431Z,2.13
2018-12-30T22:23:17.844Z,1.70
2018-12-30T22:25:48.316Z,1.60
2018-12-30T22:28:18.645Z,1.80
2018-12-30T22:30:49.115Z,1.53
2018-12-30T22:33:19.441Z,1.30
2018-12-30T22:35:49.155Z,1.20
2018-12-30T22:38:39.648Z,1.70
2018-12-30T22:41:13.489Z,1.60
2018-12-30T22:43:47.314Z,1.60
2018-12-30T22:46:24.983Z,1.70
2018-12-30T22:49:05.674Z,1.97
2018-12-30T22:51:37.241Z,1.90
2018-12-30T22:54:23.152Z,1.90
2018-12-30T22:57:17.755Z,1.60
2018-12-30T22:59:52.556Z,1.17
2018-12-30T23:02:28.981Z,1.07
2018-12-30T23:05:04.167Z,1.60
2018-12-30T23:07:38.647Z,1.90
2018-12-30T23:10:11.467Z,1.60
2018-12-30T23:15:34.028Z,1.80
2018-12-30T23:18:08.591Z,2.07
2018-12-30T23:20:46.793Z,1.43
2018-12-30T23:23:20.258Z,1.80
2018-12-30T23:25:57.025Z,1.73
2018-12-30T23:28:31.157Z,1.70
2018-12-30T23:31:01.951Z,1.33
2018-12-30T23:33:32.328Z,1.70
2018-12-30T23:36:02.675Z,1.57
2018-12-30T23:38:33.041Z,1.60
2018-12-30T23:41:03.363Z,1.30
2018-12-30T23:43:33.743Z,1.30
2018-12-30T23:46:04.155Z,1.53
2018-12-30T23:48:34.487Z,1.60
2018-12-30T23:51:05.149Z,1.70
2018-12-30T23:53:35.548Z,1.50
2018-12-30T23:56:05.871Z,1.90
2018-12-30T23:58:55.252Z,1.40
